FDX1907 KOKC-KMCI
Flight info
| Callsign | FDX1907 |
|---|---|
| Flight time | N/A |
| Altitude | 33000 |
| Route | WENDY3 BELMN ZOURA WUTNG3 |
| Aircraft | A306/H-SDE3FGHIRWY/LB1 |
Departure
| Time | 2026-05-07 12:39 |
|---|---|
| Airport | OKC Will Rogers World Airport (KOKC) |
Arrival
| Time | N/A |
|---|---|
| Airport | Kansas City International Airport (KMCI) |
| Time | Latitude | Longitude | Altitude | Speed | Heading |
|---|---|---|---|---|---|
| 2026-05-07 12:24 | 35.39971 | -97.59232 | 1301 ft | 0 kts | 270° |
| 2026-05-07 12:31 | 35.39971 | -97.59220 | 1302 ft | 4 kts | 270° |
| 2026-05-07 12:31 | 35.39972 | -97.59188 | 1302 ft | 3 kts | 270° |
| 2026-05-07 12:31 | 35.39973 | -97.59162 | 1301 ft | 4 kts | 241° |
| 2026-05-07 12:32 | 35.39990 | -97.59147 | 1300 ft | 4 kts | 182° |
| 2026-05-07 12:32 | 35.40007 | -97.59147 | 1300 ft | 0 kts | 180° |
| 2026-05-07 12:35 | 35.39987 | -97.59147 | 1300 ft | 7 kts | 180° |
| 2026-05-07 12:35 | 35.39948 | -97.59147 | 1300 ft | 5 kts | 180° |
| 2026-05-07 12:35 | 35.39920 | -97.59120 | 1300 ft | 8 kts | 118° |
| 2026-05-07 12:35 | 35.39935 | -97.59069 | 1298 ft | 6 kts | 29° |
| 2026-05-07 12:36 | 35.39967 | -97.59066 | 1298 ft | 5 kts | 4° |
| 2026-05-07 12:36 | 35.40009 | -97.59063 | 1298 ft | 11 kts | 3° |
| 2026-05-07 12:36 | 35.40115 | -97.59060 | 1299 ft | 19 kts | 1° |
| 2026-05-07 12:36 | 35.40266 | -97.59059 | 1298 ft | 25 kts | 359° |
| 2026-05-07 12:37 | 35.40436 | -97.59063 | 1297 ft | 23 kts | 358° |
| 2026-05-07 12:37 | 35.40498 | -97.58988 | 1299 ft | 9 kts | 78° |
| 2026-05-07 12:37 | 35.40501 | -97.58923 | 1300 ft | 6 kts | 104° |
| 2026-05-07 12:37 | 35.40474 | -97.58901 | 1300 ft | 5 kts | 163° |
| 2026-05-07 12:38 | 35.40448 | -97.58898 | 1301 ft | 7 kts | 179° |
| 2026-05-07 12:38 | 35.40211 | -97.58898 | 1300 ft | 68 kts | 180° |
| 2026-05-07 12:38 | 35.39509 | -97.58898 | 1297 ft | 131 kts | 180° |
| 2026-05-07 12:38 | 35.38409 | -97.58896 | 1452 ft | 180 kts | 180° |
| 2026-05-07 12:39 | 35.37090 | -97.58905 | 2407 ft | 201 kts | 184° |
| 2026-05-07 12:39 | 35.35673 | -97.59275 | 3263 ft | 216 kts | 201° |
| 2026-05-07 12:39 | 35.34304 | -97.60207 | 3882 ft | 238 kts | 217° |
| 2026-05-07 12:39 | 35.33119 | -97.61730 | 4569 ft | 256 kts | 241° |
| 2026-05-07 12:40 | 35.32716 | -97.63824 | 5691 ft | 255 kts | 277° |
| 2026-05-07 12:40 | 35.33416 | -97.65730 | 7135 ft | 246 kts | 311° |
| 2026-05-07 12:40 | 35.34907 | -97.66750 | 8393 ft | 256 kts | 343° |
| 2026-05-07 12:40 | 35.36732 | -97.66785 | 9534 ft | 269 kts | 358° |
| 2026-05-07 12:41 | 35.38631 | -97.66551 | 10474 ft | 281 kts | 359° |
| 2026-05-07 12:41 | 35.40634 | -97.66314 | 10923 ft | 305 kts | 359° |
| 2026-05-07 12:41 | 35.42832 | -97.66087 | 11288 ft | 328 kts | 358° |
| 2026-05-07 12:41 | 35.45181 | -97.65867 | 11642 ft | 349 kts | 358° |
| 2026-05-07 12:42 | 35.47665 | -97.65646 | 12071 ft | 365 kts | 359° |
| 2026-05-07 12:42 | 35.50225 | -97.65424 | 12735 ft | 373 kts | 358° |
| 2026-05-07 12:42 | 35.52838 | -97.65202 | 13487 ft | 377 kts | 359° |
| 2026-05-07 12:42 | 35.55469 | -97.64978 | 14208 ft | 382 kts | 359° |
| 2026-05-07 12:43 | 35.58130 | -97.64752 | 14888 ft | 385 kts | 359° |
| 2026-05-07 12:43 | 35.60812 | -97.64525 | 15622 ft | 388 kts | 360° |
| 2026-05-07 12:43 | 35.63514 | -97.64297 | 16355 ft | 391 kts | 360° |
| 2026-05-07 12:43 | 35.66243 | -97.64066 | 17066 ft | 394 kts | 360° |
| 2026-05-07 12:44 | 35.68989 | -97.63833 | 17767 ft | 397 kts | 0° |
| 2026-05-07 12:44 | 35.71756 | -97.63595 | 18437 ft | 400 kts | 1° |
| 2026-05-07 12:44 | 35.74531 | -97.63044 | 18977 ft | 410 kts | 10° |
| 2026-05-07 12:44 | 35.77258 | -97.61928 | 19494 ft | 416 kts | 15° |
| 2026-05-07 12:45 | 35.79980 | -97.60658 | 20003 ft | 421 kts | 16° |
| 2026-05-07 12:45 | 35.82723 | -97.59361 | 20512 ft | 424 kts | 16° |
| 2026-05-07 12:45 | 35.85503 | -97.58052 | 20958 ft | 430 kts | 16° |
| 2026-05-07 12:45 | 35.88312 | -97.56732 | 21399 ft | 434 kts | 16° |
| 2026-05-07 12:46 | 35.91141 | -97.55405 | 21885 ft | 437 kts | 16° |
| 2026-05-07 12:46 | 35.93995 | -97.54069 | 22379 ft | 440 kts | 16° |
| 2026-05-07 12:46 | 35.96865 | -97.52728 | 22852 ft | 443 kts | 15° |
| 2026-05-07 12:46 | 35.99759 | -97.51377 | 23308 ft | 447 kts | 15° |
| 2026-05-07 12:47 | 36.02676 | -97.50013 | 23764 ft | 449 kts | 15° |
| 2026-05-07 12:47 | 36.05615 | -97.48638 | 24131 ft | 453 kts | 15° |
| 2026-05-07 12:47 | 36.08574 | -97.47254 | 24439 ft | 457 kts | 15° |
| 2026-05-07 12:47 | 36.11557 | -97.45857 | 24746 ft | 460 kts | 15° |
| 2026-05-07 12:48 | 36.14564 | -97.44448 | 25045 ft | 464 kts | 15° |
| 2026-05-07 12:48 | 36.17592 | -97.43027 | 25334 ft | 467 kts | 15° |
| 2026-05-07 12:48 | 36.20642 | -97.41595 | 25623 ft | 470 kts | 15° |
| 2026-05-07 12:48 | 36.23713 | -97.40152 | 25904 ft | 473 kts | 14° |
| 2026-05-07 12:49 | 36.26802 | -97.38698 | 26186 ft | 476 kts | 14° |
| 2026-05-07 12:49 | 36.29902 | -97.37237 | 26589 ft | 477 kts | 14° |
| 2026-05-07 12:49 | 36.33002 | -97.35774 | 26904 ft | 478 kts | 14° |
| 2026-05-07 12:49 | 36.36123 | -97.34303 | 27165 ft | 481 kts | 14° |
| 2026-05-07 12:50 | 36.39261 | -97.32822 | 27419 ft | 484 kts | 14° |
| 2026-05-07 12:50 | 36.42409 | -97.31336 | 27673 ft | 486 kts | 14° |
| 2026-05-07 12:50 | 36.45565 | -97.29843 | 28004 ft | 486 kts | 14° |
| 2026-05-07 12:50 | 36.48734 | -97.28342 | 28391 ft | 486 kts | 14° |
| 2026-05-07 12:51 | 36.51883 | -97.26849 | 28750 ft | 486 kts | 14° |
| 2026-05-07 12:51 | 36.55049 | -97.25349 | 29199 ft | 484 kts | 14° |
| 2026-05-07 12:51 | 36.58191 | -97.23856 | 29677 ft | 482 kts | 14° |
| 2026-05-07 12:51 | 36.61321 | -97.22369 | 30055 ft | 482 kts | 14° |
| 2026-05-07 12:52 | 36.64461 | -97.20877 | 30388 ft | 483 kts | 14° |
| 2026-05-07 12:52 | 36.67598 | -97.19386 | 30662 ft | 484 kts | 14° |
| 2026-05-07 12:52 | 36.70753 | -97.17885 | 30938 ft | 485 kts | 14° |
| 2026-05-07 12:52 | 36.73906 | -97.16358 | 31221 ft | 488 kts | 15° |
| 2026-05-07 12:53 | 36.76990 | -97.14527 | 31494 ft | 493 kts | 20° |
| 2026-05-07 12:53 | 36.80042 | -97.12567 | 31926 ft | 492 kts | 20° |
| 2026-05-07 12:53 | 36.83065 | -97.10598 | 32341 ft | 490 kts | 20° |
| 2026-05-07 12:53 | 36.86090 | -97.08631 | 32595 ft | 492 kts | 20° |
| 2026-05-07 12:54 | 36.89129 | -97.06657 | 32852 ft | 494 kts | 20° |
| 2026-05-07 12:54 | 36.92177 | -97.04676 | 33106 ft | 495 kts | 20° |
| 2026-05-07 12:54 | 36.98199 | -97.00746 | 33148 ft | 477 kts | 19° |
| 2026-05-07 12:55 | 37.04042 | -96.96940 | 33186 ft | 471 kts | 20° |
| 2026-05-07 12:55 | 37.09825 | -96.93169 | 33155 ft | 467 kts | 20° |
| 2026-05-07 12:56 | 37.15542 | -96.89434 | 33152 ft | 466 kts | 20° |
| 2026-05-07 12:56 | 37.21295 | -96.85669 | 33156 ft | 466 kts | 20° |
| 2026-05-07 12:57 | 37.27045 | -96.81897 | 33150 ft | 467 kts | 20° |
| 2026-05-07 12:57 | 37.32791 | -96.78122 | 33151 ft | 465 kts | 20° |
| 2026-05-07 12:58 | 37.38514 | -96.74354 | 33148 ft | 464 kts | 20° |
| 2026-05-07 12:58 | 37.44231 | -96.70586 | 33145 ft | 464 kts | 20° |
| 2026-05-07 12:59 | 37.49947 | -96.66811 | 33147 ft | 464 kts | 20° |
| 2026-05-07 12:59 | 37.55658 | -96.63032 | 33150 ft | 461 kts | 20° |
| 2026-05-07 13:00 | 37.61312 | -96.59285 | 33144 ft | 458 kts | 20° |
| 2026-05-07 13:00 | 37.66950 | -96.55540 | 33145 ft | 458 kts | 20° |
| 2026-05-07 13:01 | 37.72588 | -96.51790 | 33142 ft | 458 kts | 20° |
| 2026-05-07 13:01 | 37.78225 | -96.48034 | 33161 ft | 458 kts | 21° |
| 2026-05-07 13:02 | 37.82902 | -96.44911 | 33139 ft | 456 kts | 20° |